Plantsville, Connecticut
Current Conditions -  °F | °C
As of 2:53 PM on Thursday 27 Nov 2014 (Local Time) from KMMK Reporting Station
Light Snow Light Snow  
Wind Chill: 29°   Ceiling: 2900
Heat Index: 34°   Visibility: 2.5mi
Dew Point: 29°   Wind: 6mph
Humidity: 82%   Direction: 300°WNW
Pressure: 29.97"   Gusts: NA
Location:  41.58°N, 72.89°W
Report Text: KMMK 271953Z AUTO 30005KT 2 1/2SM -SN BKN029 OVC036 01/M02 A2997 RMK AO2 VIS 1 3/4V3 SNE1855B42 SLP150 P0000 T00111017 TSNO
Loading
Personal Weather Stations






























Interactive Weather Map New forecast layout! Learn more

10-Day Weather Forecast

Advertisements
Track Severe Weather on mobile